createdAt,value
2023-08-04T00:00:00.204Z,99.9
2023-08-04T00:05:00.122Z,99.9
2023-08-04T00:10:00.096Z,99.9
2023-08-04T00:15:00.081Z,99.9
2023-08-04T00:20:00.122Z,99.9
2023-08-04T00:25:00.126Z,99.9
2023-08-04T00:30:00.130Z,99.9
2023-08-04T00:35:00.111Z,99.9
2023-08-04T00:40:00.097Z,99.9
2023-08-04T00:45:00.139Z,99.9
2023-08-04T00:50:00.100Z,99.9
2023-08-04T00:55:00.090Z,99.9
2023-08-04T01:00:00.125Z,99.9
2023-08-04T01:05:00.908Z,99.9
2023-08-04T01:10:00.094Z,99.9
2023-08-04T01:15:00.112Z,99.9
2023-08-04T01:20:00.138Z,99.9
2023-08-04T01:25:00.143Z,99.9
2023-08-04T01:30:00.103Z,99.9
2023-08-04T01:35:00.091Z,99.9
2023-08-04T01:40:00.130Z,99.9
2023-08-04T01:45:00.112Z,99.9
2023-08-04T01:50:00.137Z,99.9
2023-08-04T01:55:00.102Z,99.9
2023-08-04T02:00:00.147Z,99.9
2023-08-04T02:05:00.118Z,99.9
2023-08-04T02:10:00.112Z,99.9
2023-08-04T02:15:00.156Z,99.9
2023-08-04T02:20:00.130Z,99.9
2023-08-04T02:25:00.124Z,99.9
2023-08-04T02:30:00.129Z,99.9
2023-08-04T02:35:00.125Z,99.9
2023-08-04T02:40:00.189Z,99.9
2023-08-04T02:45:00.186Z,99.9
2023-08-04T02:50:00.123Z,99.9
2023-08-04T02:55:00.110Z,99.9
2023-08-04T03:00:00.168Z,99.9
2023-08-04T03:05:00.149Z,99.9
2023-08-04T03:10:00.099Z,99.9
2023-08-04T03:15:00.625Z,99.9
2023-08-04T03:20:00.113Z,99.9
2023-08-04T03:25:00.146Z,99.9
2023-08-04T03:30:00.136Z,99.9
2023-08-04T03:35:00.108Z,99.9
2023-08-04T03:40:00.103Z,99.9
2023-08-04T03:45:00.119Z,99.9
2023-08-04T03:50:01.929Z,99.9
2023-08-04T03:55:00.126Z,99.9
2023-08-04T04:00:00.117Z,99.9
2023-08-04T04:05:00.134Z,99.9
2023-08-04T04:10:00.116Z,99.9
2023-08-04T04:15:00.141Z,99.9
2023-08-04T04:20:00.133Z,99.9
2023-08-04T04:25:00.129Z,99.9
2023-08-04T04:30:00.153Z,99.9
2023-08-04T04:35:00.146Z,99.9
2023-08-04T04:40:00.108Z,99.9
2023-08-04T04:45:00.160Z,99.9
2023-08-04T04:50:00.088Z,99.9
2023-08-04T04:55:00.120Z,99.9
2023-08-04T05:00:00.171Z,99.9
2023-08-04T05:05:00.146Z,99.9
2023-08-04T05:10:00.089Z,99.9
2023-08-04T05:15:00.132Z,99.9
2023-08-04T05:20:00.119Z,99.9
2023-08-04T05:25:10.099Z,99.9
2023-08-04T05:30:00.186Z,99.9
2023-08-04T05:35:00.107Z,99.9
2023-08-04T05:40:00.125Z,99.9
2023-08-04T05:45:00.208Z,99.9
2023-08-04T05:50:00.120Z,99.9
2023-08-04T05:55:00.095Z,99.9
2023-08-04T06:00:00.146Z,99.9
2023-08-04T06:05:00.124Z,99.9
2023-08-04T06:10:00.160Z,99.9
2023-08-04T06:15:00.105Z,99.9
2023-08-04T06:20:00.114Z,99.9
2023-08-04T06:25:00.152Z,99.9
2023-08-04T06:30:00.157Z,99.9
2023-08-04T06:35:00.158Z,99.9
2023-08-04T06:40:00.110Z,99.9
2023-08-04T06:45:00.135Z,99.9
2023-08-04T06:50:00.148Z,99.9
2023-08-04T06:55:00.107Z,99.9
2023-08-04T07:00:00.235Z,99.9
2023-08-04T07:05:00.143Z,99.9
2023-08-04T07:10:00.117Z,99.9
2023-08-04T07:15:00.199Z,99.9
2023-08-04T07:20:00.168Z,99.9
2023-08-04T07:25:00.124Z,99.9
2023-08-04T07:30:00.189Z,99.9
2023-08-04T07:35:00.117Z,99.9
2023-08-04T07:40:00.153Z,99.9
2023-08-04T07:45:00.208Z,99.9
2023-08-04T07:50:00.158Z,99.9
2023-08-04T07:55:00.156Z,99.9
2023-08-04T08:00:00.218Z,99.9
2023-08-04T08:05:00.165Z,99.9
2023-08-04T08:10:00.115Z,99.9
2023-08-04T08:15:00.575Z,99.9
2023-08-04T08:20:00.120Z,99.9
2023-08-04T08:25:00.155Z,99.9
2023-08-04T08:30:00.160Z,98.5
2023-08-04T08:35:00.102Z,97.7
2023-08-04T08:40:00.121Z,97.9
2023-08-04T08:45:00.165Z,98.5
2023-08-04T08:50:00.096Z,98.8
2023-08-04T08:55:00.100Z,98.6
2023-08-04T09:00:00.195Z,97.9
2023-08-04T09:05:00.147Z,97.9
2023-08-04T09:10:00.126Z,97.3
2023-08-04T09:15:00.135Z,98
2023-08-04T09:20:00.091Z,99.4
2023-08-04T09:25:00.139Z,99.5
2023-08-04T09:30:00.128Z,99.9
2023-08-04T09:35:00.114Z,99.9
2023-08-04T09:40:00.137Z,97.6
2023-08-04T09:45:00.158Z,91.9
2023-08-04T09:50:00.181Z,74.6
2023-08-04T09:55:00.105Z,62.4
2023-08-04T10:00:00.203Z,54.3
2023-08-04T10:05:00.251Z,45.4
2023-08-04T10:10:00.092Z,40.8
2023-08-04T10:15:00.134Z,40.6
2023-08-04T10:20:00.160Z,40.7
2023-08-04T10:25:00.221Z,40.9
2023-08-04T10:30:00.168Z,40
2023-08-04T10:35:00.220Z,38
2023-08-04T10:40:00.098Z,37.1
2023-08-04T10:45:00.195Z,37
2023-08-04T10:50:00.168Z,37.8
2023-08-04T10:55:00.150Z,36.7
2023-08-04T11:00:00.190Z,36.9
2023-08-04T11:05:00.267Z,35.8
2023-08-04T11:10:00.120Z,36.5
2023-08-04T11:15:00.117Z,37.3
2023-08-04T11:20:00.201Z,37.1
2023-08-04T11:25:00.132Z,37.6
2023-08-04T11:30:00.118Z,38.2
2023-08-04T11:35:00.133Z,38.6
2023-08-04T11:40:00.109Z,39.2
2023-08-04T11:45:00.385Z,40.4
2023-08-04T11:50:00.182Z,41.2
2023-08-04T11:55:00.151Z,40.5
2023-08-04T12:00:00.206Z,39.5
2023-08-04T12:05:00.306Z,38.8
2023-08-04T12:10:00.113Z,39
2023-08-04T12:15:01.476Z,39.2
2023-08-04T12:20:00.163Z,40
2023-08-04T12:25:00.158Z,40.6
2023-08-04T12:30:00.186Z,41
2023-08-04T12:35:00.151Z,40.6
2023-08-04T12:40:00.164Z,40.3
2023-08-04T12:45:00.148Z,40.4
2023-08-04T12:50:00.146Z,40.6
2023-08-04T12:55:00.163Z,40.8
2023-08-04T13:00:00.179Z,41.7
2023-08-04T13:05:00.164Z,42.5
2023-08-04T13:10:00.135Z,42.7
2023-08-04T13:15:00.130Z,42.1
2023-08-04T13:20:00.203Z,42
2023-08-04T13:25:00.131Z,42.4
2023-08-04T13:30:00.143Z,42.3
2023-08-04T13:35:00.182Z,43.2
2023-08-04T13:40:00.132Z,43.2
2023-08-04T13:45:00.146Z,43.2
2023-08-04T13:50:00.173Z,43.8
2023-08-04T13:55:00.100Z,43.4
2023-08-04T14:00:00.232Z,43.3
2023-08-04T14:05:00.171Z,43.4
2023-08-04T14:10:00.099Z,43.2
2023-08-04T14:15:00.164Z,42.5
2023-08-04T14:20:00.213Z,42.3
2023-08-04T14:25:00.143Z,42.3
2023-08-04T14:30:00.134Z,42.2
2023-08-04T14:35:00.138Z,41.6
2023-08-04T14:40:00.118Z,43.1
2023-08-04T14:45:00.157Z,43.2
2023-08-04T14:50:00.121Z,43.2
2023-08-04T14:55:00.121Z,43
2023-08-04T15:00:00.576Z,43.3
2023-08-04T15:05:00.180Z,43.4
2023-08-04T15:10:00.111Z,43.7
2023-08-04T15:15:00.117Z,44.1
2023-08-04T15:20:00.270Z,43
2023-08-04T15:25:00.127Z,44.2
2023-08-04T15:30:00.149Z,44.3
2023-08-04T15:35:00.208Z,44.1
2023-08-04T15:40:00.117Z,44.1
2023-08-04T15:45:00.142Z,43.4
2023-08-04T15:50:00.139Z,43.1
2023-08-04T15:55:11.003Z,43.2
2023-08-04T16:00:00.187Z,43.4
2023-08-04T16:05:00.155Z,44.2
2023-08-04T16:10:00.141Z,44.3
2023-08-04T16:15:00.131Z,44.3
2023-08-04T16:20:00.180Z,45.2
2023-08-04T16:25:00.133Z,45.7
2023-08-04T16:30:00.238Z,45.5
2023-08-04T16:35:00.130Z,45.4
2023-08-04T16:40:00.131Z,46.2
2023-08-04T16:45:00.210Z,46.2
2023-08-04T16:50:00.419Z,46.2
2023-08-04T16:55:00.118Z,46.4
2023-08-04T17:00:00.274Z,46.4
2023-08-04T17:05:00.118Z,46.1
2023-08-04T17:10:00.117Z,46.8
2023-08-04T17:15:00.153Z,47.3
2023-08-04T17:20:00.149Z,47.5
2023-08-04T17:25:00.137Z,47.3
2023-08-04T17:30:00.173Z,47.7
2023-08-04T17:35:00.157Z,49.4
2023-08-04T17:40:00.191Z,60.1
2023-08-04T17:45:00.180Z,66.6
2023-08-04T17:50:00.109Z,71.8
2023-08-04T17:55:00.124Z,75.7
2023-08-04T18:00:00.253Z,79.7
2023-08-04T18:05:00.194Z,81.5
2023-08-04T18:10:00.130Z,82.9
2023-08-04T18:15:00.123Z,83.7
2023-08-04T18:20:00.104Z,83.8
2023-08-04T18:25:00.124Z,84.4
2023-08-04T18:30:00.190Z,85.2
2023-08-04T18:35:00.146Z,86.1
2023-08-04T18:40:00.174Z,86.9
2023-08-04T18:45:00.202Z,87.7
2023-08-04T18:50:00.121Z,88.8
2023-08-04T18:55:00.158Z,90.1
2023-08-04T19:00:00.178Z,90.6
2023-08-04T19:05:00.136Z,91.6
2023-08-04T19:10:00.120Z,92.1
2023-08-04T19:15:00.140Z,92.6
2023-08-04T19:20:00.104Z,93
2023-08-04T19:25:00.144Z,93.4
2023-08-04T19:30:00.168Z,93.6
2023-08-04T19:35:00.120Z,94.1
2023-08-04T19:40:00.162Z,94.4
2023-08-04T19:45:00.129Z,94.6
2023-08-04T19:50:00.150Z,94.9
2023-08-04T19:55:00.157Z,95.3
2023-08-04T20:00:00.209Z,95.9
2023-08-04T20:05:00.233Z,96.3
2023-08-04T20:10:00.398Z,96.3
2023-08-04T20:15:00.156Z,96.2
2023-08-04T20:20:00.141Z,96.4
2023-08-04T20:25:00.140Z,96.5
2023-08-04T20:30:00.147Z,96.7
2023-08-04T20:35:00.106Z,97.6
2023-08-04T20:40:00.192Z,97.7
2023-08-04T20:45:00.125Z,97.5
2023-08-04T20:50:00.122Z,97.9
2023-08-04T20:55:00.150Z,97.9
2023-08-04T21:00:00.243Z,98
2023-08-04T21:05:00.215Z,98
2023-08-04T21:10:00.140Z,98.3
2023-08-04T21:15:00.105Z,98.3
2023-08-04T21:20:00.213Z,98.2
2023-08-04T21:25:00.138Z,98
2023-08-04T21:30:00.164Z,98.3
2023-08-04T21:35:00.137Z,98.5
2023-08-04T21:40:00.175Z,98.8
2023-08-04T21:45:00.151Z,99.1
2023-08-04T21:50:00.157Z,99.2
2023-08-04T21:55:00.129Z,99.4
2023-08-04T22:00:00.280Z,99.6
2023-08-04T22:05:00.164Z,99.7
2023-08-04T22:10:00.121Z,99.9
2023-08-04T22:15:00.152Z,99.9
2023-08-04T22:20:00.157Z,99.9
2023-08-04T22:25:00.175Z,99.9
2023-08-04T22:30:00.168Z,99.9
2023-08-04T22:35:00.158Z,99.9
2023-08-04T22:40:00.178Z,99.9
2023-08-04T22:45:00.238Z,99.9
2023-08-04T22:50:00.148Z,99.9
2023-08-04T22:55:00.139Z,99.9
2023-08-04T23:00:00.174Z,99.9
2023-08-04T23:05:00.152Z,99.9
2023-08-04T23:10:00.186Z,99.9
2023-08-04T23:15:00.104Z,99.9
2023-08-04T23:20:00.122Z,99.9
2023-08-04T23:25:00.155Z,99.9
2023-08-04T23:30:00.146Z,99.9
2023-08-04T23:35:00.129Z,99.9
2023-08-04T23:40:00.148Z,99.9
2023-08-04T23:45:00.169Z,99.9
2023-08-04T23:50:00.149Z,99.9
2023-08-04T23:55:00.156Z,99.9
